Latest Weather Observations for Wilsons Promontory

IDV60801

Issued at 6:31 am EDT Saturday 31 January 2015 (issued every 30 minutes, with the page automatically refreshed every 10 minutes)

About weather observations | Map of weather stations | Latest weather observations for VIC | Other Formats
Station Details ID: 085096 Name: WILSONS PROMONTORY LIGHTHOUSE Lat: -39.13 Lon: 146.42 Height: 95.0 m
Data from the previous 72 hours. | See also: Recent months at Wilsons Promontory
Date/Time
EDT
Temp
°C
App
Temp
°C
Dew
Point
Rel
Hum
%
Delta-T
°C
Wind Press
QNH
hPa
Press
MSL
hPa
Rain
since 9 am
mm
Dir
 
Spd
km/h
Gust
km/h
Spd
kts
Gust
kts
31/06:30am 15.8 13.7 13.5 86 1.3 W 17 20 9 11 1009.4 - 0.0
31/06:00am 16.0 13.7 14.0 88 1.1 SW 19 22 10 12 1009.4 1009.2 0.0
31/05:30am 15.9 13.5 14.3 90 0.9 W 20 24 11 13 1009.1 - 0.0
31/05:00am 15.6 13.6 13.8 89 1.0 W 17 20 9 11 1008.9 - 0.0
31/04:30am 15.7 13.6 13.7 88 1.1 W 17 22 9 12 1009.2 - 0.0
31/04:00am 15.7 13.2 13.4 86 1.3 W 19 24 10 13 1009.3 - 0.0
31/03:30am 15.7 12.8 13.0 84 1.5 W 20 26 11 14 1009.5 - 0.0
31/03:00am 15.6 12.2 12.4 81 1.8 W 22 28 12 15 1009.7 1009.5 0.0
31/02:30am 15.3 11.8 12.1 81 1.7 W 22 30 12 16 1009.8 - 0.0
31/02:00am 15.1 10.6 11.3 78 2.0 WNW 26 32 14 17 1010.1 - 0.0
31/01:30am 15.0 10.8 11.0 77 2.1 WNW 24 32 13 17 1010.4 - 0.0
31/01:00am 15.0 10.7 10.6 75 2.3 WNW 24 30 13 16 1010.8 - 0.0
31/12:30am 15.0 10.7 10.6 75 2.3 W 24 32 13 17 1011.0 - 0.0
31/12:00am 14.9 10.5 10.5 75 2.3 WNW 24 30 13 16 1011.3 1011.1 0.0
 
Date/Time
EDT
Temp
°C
App
Temp
°C
Dew
Point
Rel
Hum
%
Delta-T
°C
Wind Press
QNH
hPa
Press
MSL
hPa
Rain
since 9 am
mm
Dir
 
Spd
km/h
Gust
km/h
Spd
kts
Gust
kts
30/11:30pm 15.0 10.7 10.8 76 2.2 W 24 30 13 16 1011.6 - 0.0
30/11:00pm 15.3 11.4 10.9 75 2.3 W 22 30 12 16 1011.8 - 0.0
30/10:30pm 15.7 11.6 11.3 75 2.4 W 24 33 13 18 1011.9 - 0.0
30/10:00pm 15.8 12.0 11.2 74 2.5 W 22 33 12 18 1012.1 - 0.0
30/09:30pm 15.8 11.5 10.8 72 2.7 W 24 32 13 17 1012.0 - 0.0
30/09:00pm 15.8 10.6 10.3 70 2.9 W 28 37 15 20 1012.0 1011.8 0.0
30/08:30pm 15.9 11.0 9.8 67 3.2 W 26 35 14 19 1012.0 - 0.0
30/08:00pm 15.9 9.3 8.4 61 3.8 WSW 33 44 18 24 1011.9 - 0.0
30/07:30pm 15.8 9.4 9.2 65 3.4 WSW 33 46 18 25 1012.0 - 0.0
30/07:00pm 15.8 9.3 8.8 63 3.6 WSW 33 41 18 22 1012.1 - 0.0
30/06:30pm 15.8 9.0 9.2 65 3.4 SW 35 43 19 23 1012.2 - 0.0
30/06:00pm 15.9 9.5 9.3 65 3.4 SW 33 43 18 23 1012.4 1012.2 0.0
30/05:40pm 15.7 10.2 9.1 65 3.4 SW 28 46 15 25 1012.5 - 0.0
30/05:30pm 15.8 8.3 9.5 66 3.3 SW 39 48 21 26 1012.5 - 0.0
30/05:21pm 15.9 10.1 9.3 65 3.4 SW 30 48 16 26 1012.6 - 0.0
30/05:00pm 15.7 11.4 9.4 66 3.3 W 22 35 12 19 1012.7 - 0.0
30/04:37pm 16.0 10.8 10.1 68 3.1 SW 28 46 15 25 1012.9 - 0.0
30/04:30pm 15.9 11.0 10.0 68 3.1 SW 26 44 14 24 1012.9 - 0.0
30/04:00pm 16.1 13.2 9.5 65 3.4 SW 15 30 8 16 1013.6 - 0.0
30/03:30pm 16.0 13.1 9.7 66 3.3 W 15 26 8 14 1013.7 - 0.0
30/03:00pm 16.0 13.4 9.2 64 3.5 W 13 22 7 12 1013.8 1013.6 0.0
30/02:30pm 16.4 12.2 9.8 65 3.5 SW 22 30 12 16 1014.1 - 0.0
30/02:00pm 16.7 13.7 9.4 62 3.8 SW 15 28 8 15 1014.3 - 0.0
30/01:30pm 16.5 13.0 8.7 60 4.0 SW 17 26 9 14 1014.5 - 0.0
30/01:00pm 17.0 13.4 9.7 62 3.8 SW 19 26 10 14 1014.7 - 0.0
30/12:30pm 16.9 15.3 10.1 64 3.6 SW 9 15 5 8 1014.9 - 0.0
30/12:00pm 15.7 13.9 9.4 66 3.3 N 9 17 5 9 1015.3 1015.1 0.0
30/11:30am 15.6 13.0 9.5 67 3.2 SSW 13 20 7 11 1015.4 - 0.0
30/11:00am 14.9 12.2 9.1 68 3.0 SW 13 20 7 11 1015.6 - 0.0
30/10:30am 14.8 11.0 9.0 68 3.0 S 19 28 10 15 1015.7 - 0.0
30/10:00am 14.9 10.2 9.3 69 2.9 SSE 24 33 13 18 1015.8 - 0.0
30/09:30am 15.0 12.0 9.4 69 2.9 S 15 33 8 18 1015.8 - 0.0
30/09:00am 14.6 9.0 8.8 68 3.0 SSE 28 35 15 19 1015.9 1015.7 1.4
30/08:30am 14.9 8.9 8.8 67 3.1 SSE 30 37 16 20 1015.8 - 1.4
30/08:00am 14.6 9.0 8.8 68 3.0 SSE 28 35 15 19 1015.7 - 1.4
30/07:30am 14.5 8.5 8.5 67 3.0 SSE 30 39 16 21 1015.6 - 1.4
30/07:00am 14.3 8.2 8.3 67 3.0 SSE 30 39 16 21 1015.5 - 1.4
30/06:30am 14.2 8.3 7.7 65 3.2 SSE 28 35 15 19 1015.6 - 1.4
30/06:00am 14.1 6.6 7.9 66 3.1 SSE 37 46 20 25 1015.4 1015.2 1.4
30/05:30am 14.2 8.1 8.4 68 2.9 SSE 30 39 16 21 1015.4 - 1.4
30/05:00am 14.3 8.0 8.9 70 2.8 SSE 32 41 17 22 1015.7 - 1.4
30/04:30am 14.5 7.9 8.5 67 3.0 SSE 33 43 18 23 1015.9 - 1.4
30/04:00am 14.7 7.3 8.2 65 3.3 SE 37 44 20 24 1016.1 - 1.4
30/03:30am 14.6 7.6 8.3 66 3.2 SSE 35 41 19 22 1016.3 - 1.4
30/03:00am 14.8 8.9 9.2 69 2.9 SSE 30 37 16 20 1016.6 1016.4 1.4
30/02:30am 14.1 10.3 9.9 76 2.2 SE 20 35 11 19 1017.0 - 1.4
30/02:00am 14.1 7.1 11.4 84 1.4 SSE 39 56 21 30 1016.9 - 1.4
30/01:58am 14.4 8.7 11.9 85 1.4 SSE 33 39 18 21 1017.1 - 1.4
30/01:30am 13.8 12.3 11.8 88 1.1 S 11 19 6 10 1017.3 - 1.4
30/01:00am 13.4 12.2 11.6 89 1.0 SSE 9 15 5 8 1017.9 - 1.4
30/12:30am 13.4 6.8 11.3 87 1.1 SE 37 44 20 24 1018.2 - 1.4
30/12:00am 13.4 7.6 10.9 85 1.3 SSE 32 39 17 21 1018.5 1018.3 1.0
 
Date/Time
EDT
Temp
°C
App
Temp
°C
Dew
Point
Rel
Hum
%
Delta-T
°C
Wind Press
QNH
hPa
Press
MSL
hPa
Rain
since 9 am
mm
Dir
 
Spd
km/h
Gust
km/h
Spd
kts
Gust
kts
29/11:49pm 13.4 6.2 10.4 82 1.6 SSE 39 57 21 31 1018.6 - 0.6
29/11:41pm 14.5 7.0 10.7 78 2.0 SSE 41 50 22 27 1018.6 - 0.2
29/11:37pm 14.8 9.8 10.8 77 2.1 ESE 28 50 15 27 1018.6 - 0.2
29/11:30pm 14.5 8.9 10.3 76 2.2 ESE 30 41 16 22 1018.5 - 0.2
29/11:12pm 14.5 9.3 10.1 75 2.3 SE 28 46 15 25 1018.8 - 0.0
29/11:00pm 15.6 10.1 10.4 71 2.8 ESE 30 44 16 24 1018.6 - 0.0
29/10:30pm 15.7 11.8 10.7 72 2.7 ESE 22 28 12 15 1018.8 - 0.0
29/10:00pm 15.7 10.1 10.2 70 2.9 ESE 30 35 16 19 1018.9 - 0.0
29/09:30pm 15.8 10.6 10.1 69 3.0 ESE 28 33 15 18 1018.9 - 0.0
29/09:00pm 15.8 11.5 10.6 71 2.8 ESE 24 30 13 16 1018.9 1018.7 0.0
29/08:30pm 15.8 10.7 10.6 71 2.8 ESE 28 33 15 18 1018.8 - 0.0
29/08:00pm 15.8 10.7 10.6 71 2.8 ESE 28 35 15 19 1018.8 - 0.0
29/07:30pm 15.8 10.8 10.8 72 2.7 ESE 28 35 15 19 1018.9 - 0.0
29/07:00pm 15.8 9.7 10.3 70 2.9 SE 33 39 18 21 1018.9 - 0.0
29/06:30pm 15.9 10.9 10.9 72 2.7 ESE 28 35 15 19 1018.9 - 0.0
29/06:00pm 16.0 9.9 10.5 70 2.9 SE 33 39 18 21 1019.1 1018.9 0.0
29/05:30pm 16.0 9.6 10.7 71 2.8 SE 35 44 19 24 1019.4 - 0.0
29/05:00pm 16.3 10.2 10.6 69 3.0 SE 33 41 18 22 1019.5 - 0.0
29/04:30pm 16.2 9.9 11.2 72 2.7 SE 35 43 19 23 1019.7 - 0.0
29/04:00pm 16.2 9.0 10.7 70 2.9 SE 39 44 21 24 1019.8 - 0.0
29/03:30pm 16.6 10.7 11.1 70 3.0 SE 33 43 18 23 1019.9 - 0.0
29/03:00pm 16.3 9.5 10.6 69 3.0 SE 37 44 20 24 1020.1 1019.9 0.0
29/02:30pm 16.0 8.8 10.5 70 2.9 SSE 39 44 21 24 1020.3 - 0.0
29/02:00pm 16.0 9.2 10.5 70 2.9 SSE 37 44 20 24 1020.4 - 0.0
29/01:30pm 16.0 9.2 10.5 70 2.9 SSE 37 46 20 25 1020.5 - 0.0
29/01:00pm 15.8 8.5 10.3 70 2.9 SSE 39 50 21 27 1020.8 - 0.0
29/12:30pm 15.7 8.0 10.2 70 2.9 SSE 41 48 22 26 1020.9 - 0.0
29/12:00pm 15.8 8.1 10.1 69 3.0 SE 41 48 22 26 1021.0 1020.8 0.0
29/11:30am 16.1 8.4 10.0 67 3.2 SE 41 48 22 26 1021.0 - 0.0
29/11:00am 16.1 8.4 10.2 68 3.1 SSE 41 48 22 26 1021.0 - 0.0
29/10:30am 16.3 9.0 10.2 67 3.2 SE 39 48 21 26 1021.0 - 0.0
29/10:00am 16.1 9.1 10.0 67 3.2 SE 37 46 20 25 1021.2 - 0.0
29/09:30am 15.5 8.0 9.6 68 3.1 SE 39 46 21 25 1021.1 - 0.0
29/09:00am 15.6 7.7 9.3 66 3.3 SE 41 50 22 27 1021.0 1020.8 0.0
29/08:30am 15.3 8.2 9.4 68 3.1 SE 37 43 20 23 1020.9 - 0.0
29/08:00am 14.7 7.2 9.3 70 2.8 SE 39 46 21 25 1020.8 - 0.0
29/07:30am 14.7 7.2 9.5 71 2.7 SE 39 48 21 26 1020.6 - 0.0
29/07:00am 14.6 7.1 9.6 72 2.6 SE 39 46 21 25 1020.3 - 0.0
29/06:30am 14.7 6.9 9.9 73 2.5 SE 41 46 22 25 1020.0 - 0.0
29/06:00am 14.6 7.0 9.0 69 2.9 SE 39 46 21 25 1020.0 1019.8 0.0
29/05:30am 14.7 8.0 9.7 72 2.6 SE 35 43 19 23 1019.8 - 0.0
29/05:00am 14.7 7.5 9.3 70 2.8 SE 37 44 20 24 1019.9 - 0.0
29/04:30am 14.7 8.0 9.7 72 2.6 ESE 35 43 19 23 1019.8 - 0.0
29/04:00am 14.9 8.2 9.5 70 2.8 ESE 35 44 19 24 1019.8 - 0.0
29/03:30am 14.9 8.3 9.9 72 2.6 ESE 35 43 19 23 1019.9 - 0.0
29/03:00am 15.0 8.3 9.8 71 2.7 ESE 35 43 19 23 1020.2 1020.0 0.0
29/02:30am 15.0 8.8 10.0 72 2.6 ESE 33 41 18 22 1020.3 - 0.0
29/02:00am 15.2 8.7 10.2 72 2.6 E 35 41 19 22 1020.4 - 0.0
29/01:30am 15.2 9.1 10.4 73 2.5 ESE 33 43 18 23 1020.6 - 0.0
29/01:00am 15.4 9.2 10.0 70 2.8 ESE 33 41 18 22 1020.7 - 0.0
29/12:30am 15.5 9.2 9.6 68 3.1 E 33 39 18 21 1021.0 - 0.0
29/12:00am 15.6 8.8 9.1 65 3.3 E 35 41 19 22 1021.0 1020.8 0.0
 
Date/Time
EDT
Temp
°C
App
Temp
°C
Dew
Point
Rel
Hum
%
Delta-T
°C
Wind Press
QNH
hPa
Press
MSL
hPa
Rain
since 9 am
mm
Dir
 
Spd
km/h
Gust
km/h
Spd
kts
Gust
kts
28/11:30pm 15.7 8.8 8.9 64 3.5 E 35 41 19 22 1021.2 - 0.0
28/11:00pm 16.0 8.8 9.0 63 3.6 E 37 41 20 22 1021.4 - 0.0
28/10:30pm 15.9 9.3 10.0 68 3.1 E 35 43 19 23 1021.3 - 0.0
28/10:00pm 16.0 8.6 9.7 66 3.3 E 39 44 21 24 1021.4 - 0.0
28/09:30pm 16.1 11.5 11.1 72 2.7 E 26 39 14 21 1021.2 - 0.0
28/09:00pm 15.5 11.2 10.9 74 2.4 ENE 24 32 13 17 1021.2 1021.0 0.0
28/08:30pm 15.8 10.0 10.8 72 2.7 ENE 32 39 17 21 1021.0 - 0.0
28/08:00pm 15.9 10.2 11.1 73 2.6 ENE 32 37 17 20 1020.7 - 0.0
28/07:30pm 15.9 10.2 11.3 74 2.5 ENE 32 37 17 20 1020.6 - 0.0
28/07:00pm 16.2 10.8 10.9 71 2.8 E 30 35 16 19 1020.3 - 0.0
28/06:30pm 16.4 10.9 10.7 69 3.0 E 30 35 16 19 1020.3 - 0.0
28/06:00pm 16.9 10.9 10.7 67 3.3 E 33 39 18 21 1020.3 1020.1 0.0
28/05:30pm 17.2 12.3 11.2 68 3.3 ESE 28 35 15 19 1020.6 - 0.0
28/05:00pm 16.5 11.1 11.0 70 3.0 ESE 30 35 16 19 1020.7 - 0.0
28/04:30pm 17.1 12.2 11.4 69 3.1 ESE 28 35 15 19 1020.7 - 0.0
28/04:00pm 17.1 11.8 11.4 69 3.1 ESE 30 35 16 19 1020.8 - 0.0
28/03:30pm 16.9 11.3 11.6 71 2.9 ESE 32 35 17 19 1020.8 - 0.0
28/03:00pm 17.0 11.8 11.7 71 2.9 ESE 30 35 16 19 1020.8 1020.6 0.0
28/02:30pm 16.9 11.3 11.6 71 2.9 ESE 32 37 17 20 1020.9 - 0.0
28/02:00pm 17.0 11.5 11.9 72 2.8 ESE 32 39 17 21 1021.1 - 0.0
28/01:30pm 17.0 11.6 12.1 73 2.7 ESE 32 37 17 20 1021.2 - 0.0
28/01:00pm 16.9 11.5 12.2 74 2.6 ESE 32 37 17 20 1021.2 - 0.0
28/12:30pm 16.8 11.1 11.9 73 2.7 ESE 33 41 18 22 1020.8 - 0.0
28/12:00pm 17.8 12.2 11.6 67 3.4 E 32 39 17 21 1020.8 1020.6 0.0
28/11:30am 17.8 12.2 11.6 67 3.4 ESE 32 39 17 21 1020.9 - 0.0
28/11:00am 17.5 11.4 11.8 69 3.1 E 35 39 19 21 1020.8 - 0.0
28/10:30am 17.6 11.3 11.2 66 3.5 E 35 41 19 22 1020.5 - 0.0
28/10:00am 17.8 11.3 11.6 67 3.4 E 37 41 20 22 1020.4 - 0.0
28/09:30am 16.7 9.7 11.2 70 3.0 E 39 46 21 25 1020.3 - 0.0
28/09:00am 16.9 10.1 10.7 67 3.3 E 37 44 20 24 1020.2 1020.0 0.0
28/08:30am 17.0 11.1 11.3 69 3.1 E 33 41 18 22 1019.9 - 0.0
28/08:00am 17.0 11.5 11.9 72 2.8 E 32 39 17 21 1019.5 - 0.0
28/07:30am 16.5 10.7 11.6 73 2.7 E 33 39 18 21 1019.0 - 0.0
28/07:00am 16.2 10.5 11.8 75 2.4 E 33 37 18 20 1018.7 - 0.0

Other Formats:

Comma delimited format used in spreadsheet applications
http://www.bom.gov.au/fwo/IDV60801/IDV60801.94893.axf

JavaScript Object Notation format (JSON) in row-major order
http://www.bom.gov.au/fwo/IDV60801/IDV60801.94893.json